createdAt,value
2018-09-28T00:01:44.663Z,1.20
2018-09-28T00:04:12.986Z,1.30
2018-09-28T00:06:41.284Z,1.13
2018-09-28T00:09:10.453Z,1.30
2018-09-28T00:11:38.752Z,1.40
2018-09-28T00:14:07.356Z,1.20
2018-09-28T00:16:35.651Z,1.17
2018-09-28T00:19:04.004Z,1.17
2018-09-28T00:21:32.301Z,1.10
2018-09-28T00:24:00.643Z,1.47
2018-09-28T00:26:28.937Z,1.43
2018-09-28T00:28:57.256Z,1.10
2018-09-28T00:31:25.544Z,1.00
2018-09-28T00:33:53.859Z,1.33
2018-09-28T00:36:22.153Z,1.10
2018-09-28T00:38:50.469Z,0.90
2018-09-28T00:41:18.788Z,1.00
2018-09-28T00:43:47.100Z,1.33
2018-09-28T00:46:15.404Z,1.10
2018-09-28T00:48:43.737Z,1.10
2018-09-28T00:51:12.040Z,1.10
2018-09-28T00:53:40.369Z,1.13
2018-09-28T00:56:08.744Z,1.50
2018-09-28T00:58:37.104Z,1.73
2018-09-28T01:01:05.415Z,1.20
2018-09-28T01:03:33.750Z,1.43
2018-09-28T01:06:02.049Z,1.10
2018-09-28T01:08:30.368Z,1.47
2018-09-28T01:10:58.676Z,1.37
2018-09-28T01:13:27.008Z,1.57
2018-09-28T01:15:55.299Z,1.70
2018-09-28T01:18:23.626Z,2.00
2018-09-28T01:20:51.923Z,1.10
2018-09-28T01:23:20.312Z,1.27
2018-09-28T01:25:48.641Z,1.37
2018-09-28T01:28:16.951Z,1.30
2018-09-28T01:30:45.266Z,2.47
2018-09-28T01:33:13.593Z,1.60
2018-09-28T01:35:41.910Z,1.30
2018-09-28T01:38:10.219Z,2.17
2018-09-28T01:40:38.561Z,1.50
2018-09-28T01:43:06.863Z,1.57
2018-09-28T01:45:35.179Z,1.40
2018-09-28T01:48:03.483Z,1.80
2018-09-28T01:50:31.801Z,2.07
2018-09-28T01:53:00.096Z,1.70
2018-09-28T01:55:28.411Z,1.47
2018-09-28T01:57:56.740Z,1.50
2018-09-28T02:00:25.068Z,1.40
2018-09-28T02:02:53.384Z,2.03
2018-09-28T02:05:21.717Z,1.47
2018-09-28T02:07:56.669Z,1.20
2018-09-28T02:10:24.993Z,1.30
2018-09-28T02:12:53.412Z,1.73
2018-09-28T02:15:21.736Z,1.30
2018-09-28T02:17:50.053Z,1.87
2018-09-28T02:20:18.543Z,2.13
2018-09-28T02:22:46.871Z,1.30
2018-09-28T02:25:15.191Z,1.43
2018-09-28T02:27:43.496Z,1.30
2018-09-28T02:30:11.833Z,1.70
2018-09-28T02:32:40.129Z,1.87
2018-09-28T02:35:08.459Z,1.93
2018-09-28T02:37:36.760Z,1.90
2018-09-28T02:40:05.270Z,2.50
2018-09-28T02:42:33.576Z,2.57
2018-09-28T02:45:01.905Z,4.60
2018-09-28T02:47:30.218Z,4.50
2018-09-28T02:49:58.591Z,2.87
2018-09-28T02:52:26.897Z,3.40
2018-09-28T02:54:55.223Z,2.47
2018-09-28T02:57:23.528Z,2.40
2018-09-28T02:59:51.853Z,2.37
2018-09-28T03:02:20.169Z,2.50
2018-09-28T03:04:48.506Z,1.83
2018-09-28T03:07:16.808Z,2.03
2018-09-28T03:09:45.130Z,1.67
2018-09-28T03:12:13.435Z,1.90
2018-09-28T03:14:41.768Z,1.70
2018-09-28T03:17:10.079Z,3.03
2018-09-28T03:19:38.470Z,3.50
2018-09-28T03:22:07.503Z,2.73
2018-09-28T03:24:38.030Z,2.13
2018-09-28T03:27:06.936Z,2.17
2018-09-28T03:29:35.281Z,3.00
2018-09-28T03:32:03.585Z,3.10
2018-09-28T03:34:31.917Z,3.53
2018-09-28T03:37:00.219Z,2.67
2018-09-28T03:39:28.568Z,7.33
2018-09-28T03:41:56.893Z,3.60
2018-09-28T03:44:25.214Z,4.03
2018-09-28T03:46:53.548Z,6.43
2018-09-28T03:49:21.857Z,5.87
2018-09-28T03:51:50.170Z,4.37
2018-09-28T03:54:18.460Z,3.87
2018-09-28T03:56:46.780Z,7.70
2018-09-28T03:59:15.080Z,4.20
2018-09-28T04:01:43.400Z,3.63
2018-09-28T04:04:11.696Z,3.67
2018-09-28T04:06:40.020Z,4.67
2018-09-28T04:09:09.727Z,7.00
2018-09-28T04:11:38.072Z,5.23
2018-09-28T04:14:06.486Z,10.23
2018-09-28T04:16:34.804Z,7.40
2018-09-28T04:19:03.104Z,6.40
2018-09-28T04:21:31.436Z,6.37
2018-09-28T04:23:59.897Z,8.10
2018-09-28T04:26:28.222Z,8.13
2018-09-28T04:28:56.530Z,11.30
2018-09-28T04:31:24.854Z,11.10
2018-09-28T04:33:53.161Z,9.57
2018-09-28T04:36:21.480Z,10.03
2018-09-28T04:38:49.780Z,11.10
2018-09-28T04:41:18.120Z,13.73
2018-09-28T04:43:46.428Z,13.90
2018-09-28T04:46:14.757Z,10.03
2018-09-28T04:48:43.063Z,9.27
2018-09-28T04:51:11.371Z,12.33
2018-09-28T04:53:39.680Z,13.63
2018-09-28T04:56:08.003Z,11.83
2018-09-28T04:58:36.302Z,15.30
2018-09-28T05:01:04.623Z,13.93
2018-09-28T05:03:32.931Z,10.13
2018-09-28T05:06:01.251Z,11.60
2018-09-28T05:08:29.539Z,9.70
2018-09-28T05:10:57.867Z,9.63
2018-09-28T05:13:26.160Z,10.33
2018-09-28T05:15:54.485Z,12.10
2018-09-28T05:18:22.788Z,9.57
2018-09-28T05:20:51.105Z,8.97
2018-09-28T05:23:19.396Z,8.63
2018-09-28T05:25:47.707Z,8.13
2018-09-28T05:28:16.025Z,13.53
2018-09-28T05:30:44.968Z,9.43
2018-09-28T05:33:12.684Z,11.80
2018-09-28T05:35:41.008Z,12.33
2018-09-28T05:38:09.343Z,11.73
2018-09-28T05:40:37.682Z,9.40
2018-09-28T05:43:06.111Z,13.00
2018-09-28T05:45:34.451Z,12.90
2018-09-28T05:48:02.788Z,7.37
2018-09-28T05:50:31.112Z,6.80
2018-09-28T05:52:59.407Z,5.67
2018-09-28T05:55:27.721Z,11.00
2018-09-28T05:58:01.328Z,11.10
2018-09-28T06:00:34.861Z,7.77
2018-09-28T06:03:19.809Z,7.40
2018-09-28T06:05:53.525Z,6.57
2018-09-28T06:08:21.822Z,5.70
2018-09-28T06:10:50.299Z,8.30
2018-09-28T06:13:19.699Z,7.40
2018-09-28T06:15:48.012Z,9.67
2018-09-28T06:18:16.312Z,8.70
2018-09-28T06:20:44.654Z,8.00
2018-09-28T06:23:13.019Z,8.37
2018-09-28T06:25:41.312Z,5.57
2018-09-28T06:28:09.632Z,6.40
2018-09-28T06:30:37.949Z,6.67
2018-09-28T06:33:06.283Z,8.07
2018-09-28T06:35:34.644Z,7.30
2018-09-28T06:38:02.931Z,9.33
2018-09-28T06:40:31.251Z,9.23
2018-09-28T06:42:59.568Z,8.60
2018-09-28T06:45:27.866Z,9.77
2018-09-28T06:47:56.256Z,10.40
2018-09-28T06:50:24.511Z,8.00
2018-09-28T06:52:53.081Z,7.73
2018-09-28T06:55:21.388Z,8.80
2018-09-28T06:57:49.704Z,6.07
2018-09-28T07:00:18.069Z,5.57
2018-09-28T07:02:46.361Z,6.83
2018-09-28T07:05:14.670Z,8.30
2018-09-28T07:07:42.999Z,13.97
2018-09-28T07:10:11.312Z,10.93
2018-09-28T07:12:39.636Z,11.77
2018-09-28T07:15:07.948Z,10.47
2018-09-28T07:17:36.272Z,5.40
2018-09-28T07:20:04.670Z,4.70
2018-09-28T07:22:33.007Z,8.27
2018-09-28T07:25:01.353Z,8.50
2018-09-28T07:27:29.670Z,5.83
2018-09-28T07:29:58.021Z,5.60
2018-09-28T07:32:26.350Z,6.03
2018-09-28T07:34:54.705Z,4.00
2018-09-28T07:37:23.036Z,4.40
2018-09-28T07:39:51.336Z,4.00
2018-09-28T07:42:19.691Z,3.90
2018-09-28T07:44:47.995Z,4.03
2018-09-28T07:47:16.332Z,2.33
2018-09-28T07:49:44.639Z,2.40
2018-09-28T07:52:12.972Z,3.10
2018-09-28T07:54:41.308Z,4.03
2018-09-28T07:57:09.643Z,1.80
2018-09-28T07:59:37.935Z,1.97
2018-09-28T08:02:06.523Z,1.83
2018-09-28T08:04:34.824Z,1.50
2018-09-28T08:07:03.151Z,2.80
2018-09-28T08:09:32.280Z,3.47
2018-09-28T08:12:00.611Z,1.63
2018-09-28T08:14:28.909Z,1.70
2018-09-28T08:16:57.227Z,2.00
2018-09-28T08:19:25.536Z,3.17
2018-09-28T08:21:53.860Z,2.87
2018-09-28T08:24:22.173Z,2.00
2018-09-28T08:26:50.500Z,1.37
2018-09-28T08:29:18.810Z,2.87
2018-09-28T08:31:47.167Z,2.63
2018-09-28T08:34:15.460Z,2.07
2018-09-28T08:36:43.816Z,3.53
2018-09-28T08:39:12.109Z,3.43
2018-09-28T08:41:40.439Z,3.50
2018-09-28T08:44:08.784Z,2.17
2018-09-28T08:46:37.083Z,2.50
2018-09-28T08:49:05.420Z,3.47
2018-09-28T08:51:33.715Z,1.67
2018-09-28T08:54:02.051Z,3.93
2018-09-28T08:56:30.352Z,3.53
2018-09-28T08:58:58.670Z,3.37
2018-09-28T09:01:26.968Z,4.43
2018-09-28T09:03:55.297Z,2.33
2018-09-28T09:06:23.653Z,4.17
2018-09-28T09:08:51.973Z,3.03
2018-09-28T09:11:20.268Z,3.23
2018-09-28T09:13:48.583Z,4.60
2018-09-28T09:16:16.878Z,2.83
2018-09-28T09:18:45.202Z,4.80
2018-09-28T09:21:13.513Z,3.90
2018-09-28T09:23:41.846Z,2.77
2018-09-28T09:26:10.145Z,6.67
2018-09-28T09:28:38.473Z,4.77
2018-09-28T09:31:06.900Z,4.37
2018-09-28T09:33:35.222Z,4.07
2018-09-28T09:36:03.535Z,4.63
2018-09-28T09:38:31.848Z,4.97
2018-09-28T09:41:00.163Z,7.10
2018-09-28T09:43:28.479Z,3.47
2018-09-28T09:45:56.785Z,6.50
2018-09-28T09:48:25.127Z,4.87
2018-09-28T09:50:53.442Z,3.27
2018-09-28T09:53:21.752Z,6.30
2018-09-28T09:55:50.062Z,4.97
2018-09-28T09:58:18.401Z,3.00
2018-09-28T10:00:52.161Z,3.60
2018-09-28T10:03:25.759Z,3.13
2018-09-28T10:05:54.060Z,2.80
2018-09-28T10:08:22.375Z,4.47
2018-09-28T10:10:50.681Z,2.47
2018-09-28T10:13:19.012Z,3.70
2018-09-28T10:15:47.348Z,3.03
2018-09-28T10:18:15.677Z,1.30
2018-09-28T10:20:43.981Z,3.27
2018-09-28T10:23:12.312Z,2.47
2018-09-28T10:25:40.656Z,5.07
2018-09-28T10:28:09.049Z,2.63
2018-09-28T10:30:37.325Z,3.43
2018-09-28T10:33:05.657Z,2.63
2018-09-28T10:35:33.971Z,3.40
2018-09-28T10:38:02.296Z,3.30
2018-09-28T10:40:30.724Z,3.87
2018-09-28T10:42:59.002Z,2.33
2018-09-28T10:45:27.385Z,2.30
2018-09-28T10:47:55.652Z,1.80
2018-09-28T10:50:23.955Z,2.17
2018-09-28T10:52:52.439Z,3.33
2018-09-28T10:55:20.835Z,3.53
2018-09-28T10:57:49.258Z,3.17
2018-09-28T11:00:17.661Z,1.83
2018-09-28T11:02:45.920Z,1.50
2018-09-28T11:05:14.276Z,2.20
2018-09-28T11:07:42.628Z,2.40
2018-09-28T11:10:10.952Z,1.83
2018-09-28T11:12:39.245Z,2.07
2018-09-28T11:15:07.637Z,3.20
2018-09-28T11:17:35.912Z,3.50
2018-09-28T11:20:04.249Z,2.90
2018-09-28T11:22:32.557Z,1.60
2018-09-28T11:25:00.900Z,1.93
2018-09-28T11:27:29.307Z,2.20
2018-09-28T11:29:57.558Z,2.07
2018-09-28T11:32:25.863Z,1.47
2018-09-28T11:34:54.189Z,1.63
2018-09-28T11:37:22.595Z,1.97
2018-09-28T11:39:50.987Z,1.67
2018-09-28T11:42:19.286Z,3.43
2018-09-28T11:44:47.598Z,1.93
2018-09-28T11:47:15.904Z,1.57
2018-09-28T11:49:44.230Z,2.83
2018-09-28T11:52:12.543Z,1.57
2018-09-28T11:54:40.870Z,1.87
2018-09-28T11:57:09.228Z,3.87
2018-09-28T11:59:37.528Z,2.40
2018-09-28T12:02:05.833Z,1.97
2018-09-28T12:04:34.163Z,1.47
2018-09-28T12:07:02.529Z,4.30
2018-09-28T12:09:30.850Z,1.60
2018-09-28T12:11:59.149Z,2.67
2018-09-28T12:14:27.476Z,4.07
2018-09-28T12:16:55.784Z,5.50
2018-09-28T12:19:24.165Z,2.87
2018-09-28T12:21:52.607Z,3.57
2018-09-28T12:24:20.893Z,4.67
2018-09-28T12:26:49.212Z,3.77
2018-09-28T12:29:17.538Z,2.40
2018-09-28T12:31:46.110Z,2.37
2018-09-28T12:34:14.436Z,3.63
2018-09-28T12:36:42.817Z,3.37
2018-09-28T12:39:12.389Z,2.33
2018-09-28T12:41:41.318Z,3.13
2018-09-28T12:44:09.709Z,1.97
2018-09-28T12:46:38.020Z,2.67
2018-09-28T12:49:06.534Z,4.73
2018-09-28T12:51:34.844Z,4.40
2018-09-28T12:54:03.155Z,2.27
2018-09-28T12:56:31.479Z,3.73
2018-09-28T12:58:59.837Z,1.60
2018-09-28T13:01:28.144Z,1.83
2018-09-28T13:03:56.473Z,2.17
2018-09-28T13:06:24.840Z,2.23
2018-09-28T13:08:53.189Z,3.27
2018-09-28T13:11:21.491Z,1.87
2018-09-28T13:13:49.792Z,3.83
2018-09-28T13:16:18.152Z,1.67
2018-09-28T13:18:46.518Z,2.30
2018-09-28T13:21:14.864Z,2.30
2018-09-28T13:23:43.157Z,2.33
2018-09-28T13:26:11.542Z,1.40
2018-09-28T13:28:39.815Z,1.70
2018-09-28T13:31:08.179Z,2.47
2018-09-28T13:33:36.480Z,2.70
2018-09-28T13:36:04.928Z,1.83
2018-09-28T13:38:33.330Z,1.80
2018-09-28T13:41:01.600Z,3.07
2018-09-28T13:43:29.904Z,1.60
2018-09-28T13:45:58.229Z,3.50
2018-09-28T13:48:26.638Z,2.47
2018-09-28T13:50:54.903Z,4.43
2018-09-28T13:53:23.207Z,2.23
2018-09-28T13:55:51.529Z,2.63
2018-09-28T13:58:19.875Z,3.30
2018-09-28T14:00:48.292Z,4.40
2018-09-28T14:03:16.700Z,3.23
2018-09-28T14:05:45.053Z,3.37
2018-09-28T14:08:13.414Z,3.17
2018-09-28T14:10:41.752Z,1.97
2018-09-28T14:13:10.063Z,2.70
2018-09-28T14:15:38.391Z,2.00
2018-09-28T14:18:06.887Z,1.93
2018-09-28T14:20:35.253Z,4.47
2018-09-28T14:23:03.523Z,2.70
2018-09-28T14:25:31.869Z,2.57
2018-09-28T14:28:00.209Z,2.73
2018-09-28T14:30:28.679Z,1.67
2018-09-28T14:32:56.859Z,2.43
2018-09-28T14:35:25.180Z,3.30
2018-09-28T14:37:53.504Z,2.30
2018-09-28T14:40:21.939Z,1.70
2018-09-28T14:42:50.273Z,2.77
2018-09-28T14:45:18.530Z,1.83
2018-09-28T14:47:46.830Z,2.17
2018-09-28T14:50:15.154Z,1.57
2018-09-28T14:52:43.500Z,1.83
2018-09-28T14:55:11.796Z,1.60
2018-09-28T14:57:40.099Z,2.30
2018-09-28T15:00:08.630Z,1.77
2018-09-28T15:02:37.015Z,1.33
2018-09-28T15:05:05.472Z,1.20
2018-09-28T15:07:33.836Z,0.77
2018-09-28T15:10:02.136Z,2.20
2018-09-28T15:12:30.435Z,2.10
2018-09-28T15:14:58.758Z,2.00
2018-09-28T15:17:27.070Z,1.60
2018-09-28T15:19:55.392Z,2.10
2018-09-28T15:22:23.712Z,2.00
2018-09-28T15:24:52.023Z,2.17
2018-09-28T15:27:26.881Z,2.00
2018-09-28T15:29:55.181Z,2.03
2018-09-28T15:32:23.504Z,1.30
2018-09-28T15:34:51.819Z,1.90
2018-09-28T15:37:26.592Z,1.93
2018-09-28T15:39:54.908Z,1.47
2018-09-28T15:42:23.244Z,1.63
2018-09-28T15:44:51.544Z,1.03
2018-09-28T15:47:19.872Z,1.37
2018-09-28T15:49:48.174Z,2.10
2018-09-28T15:52:16.500Z,0.80
2018-09-28T15:54:44.809Z,2.23
2018-09-28T15:57:13.136Z,1.27
2018-09-28T15:59:41.481Z,2.13
2018-09-28T16:02:09.827Z,1.10
2018-09-28T16:04:38.130Z,3.40
2018-09-28T16:07:06.458Z,4.17
2018-09-28T16:09:34.775Z,1.80
2018-09-28T16:12:03.107Z,1.83
2018-09-28T16:14:31.432Z,2.33
2018-09-28T16:16:59.759Z,0.83
2018-09-28T16:19:28.264Z,1.47
2018-09-28T16:21:56.592Z,1.63
2018-09-28T16:24:24.892Z,1.70
2018-09-28T16:26:53.231Z,1.13
2018-09-28T16:29:21.648Z,1.50
2018-09-28T16:31:50.022Z,1.97
2018-09-28T16:34:18.327Z,0.70
2018-09-28T16:36:46.654Z,1.50
2018-09-28T16:39:14.958Z,1.50
2018-09-28T16:41:43.298Z,1.97
2018-09-28T16:44:11.608Z,2.17
2018-09-28T16:46:40.019Z,0.50
2018-09-28T16:49:08.341Z,1.10
2018-09-28T16:51:36.658Z,0.40
2018-09-28T16:54:04.975Z,0.90
2018-09-28T16:56:33.452Z,2.13
2018-09-28T16:59:01.753Z,0.87
2018-09-28T17:01:30.075Z,0.50
2018-09-28T17:03:58.447Z,1.73
2018-09-28T17:06:26.773Z,1.37
2018-09-28T17:08:55.067Z,0.80
2018-09-28T17:11:23.393Z,0.87
2018-09-28T17:13:51.708Z,0.67
2018-09-28T17:16:20.024Z,0.87
2018-09-28T17:18:48.329Z,1.70
2018-09-28T17:21:16.668Z,1.00
2018-09-28T17:23:44.981Z,0.80
2018-09-28T17:26:13.303Z,1.73
2018-09-28T17:28:41.662Z,0.90
2018-09-28T17:31:09.940Z,2.00
2018-09-28T17:33:38.246Z,1.87
2018-09-28T17:36:06.563Z,0.87
2018-09-28T17:38:34.856Z,1.20
2018-09-28T17:41:03.223Z,1.50
2018-09-28T17:43:31.548Z,0.80
2018-09-28T17:45:59.917Z,0.50
2018-09-28T17:48:28.252Z,0.57
2018-09-28T17:50:56.566Z,0.80
2018-09-28T17:53:24.904Z,1.43
2018-09-28T17:55:53.204Z,2.00
2018-09-28T17:58:21.525Z,2.57
2018-09-28T18:00:49.933Z,6.70
2018-09-28T18:03:18.251Z,9.23
2018-09-28T18:05:46.580Z,9.50
2018-09-28T18:08:14.889Z,8.53
2018-09-28T18:10:43.184Z,6.47
2018-09-28T18:13:11.508Z,6.80
2018-09-28T18:15:39.807Z,6.47
2018-09-28T18:18:08.111Z,6.63
2018-09-28T18:20:36.428Z,8.87
2018-09-28T18:23:04.744Z,7.20
2018-09-28T18:25:33.071Z,5.93
2018-09-28T18:28:01.375Z,5.17
2018-09-28T18:30:29.676Z,6.90
2018-09-28T18:32:58.010Z,12.20
2018-09-28T18:35:26.316Z,20.47
2018-09-28T18:37:54.635Z,21.37
2018-09-28T18:40:22.965Z,14.03
2018-09-28T18:42:51.293Z,8.30
2018-09-28T18:45:19.601Z,8.20
2018-09-28T18:47:47.922Z,8.87
2018-09-28T18:50:16.323Z,6.60
2018-09-28T18:52:44.633Z,3.33
2018-09-28T18:55:12.932Z,2.67
2018-09-28T18:57:41.247Z,2.70
2018-09-28T19:00:09.577Z,3.13
2018-09-28T19:02:37.896Z,2.60
2018-09-28T19:05:06.220Z,1.87
2018-09-28T19:07:34.538Z,2.20
2018-09-28T19:10:02.859Z,1.87
2018-09-28T19:12:31.274Z,2.43
2018-09-28T19:14:59.519Z,1.83
2018-09-28T19:17:27.836Z,1.50
2018-09-28T19:19:56.137Z,1.60
2018-09-28T19:22:24.530Z,3.70
2018-09-28T19:24:52.829Z,2.10
2018-09-28T19:27:21.159Z,1.13
2018-09-28T19:29:49.468Z,3.20
2018-09-28T19:32:17.780Z,2.47
2018-09-28T19:34:46.076Z,1.17
2018-09-28T19:37:14.391Z,1.97
2018-09-28T19:39:42.692Z,1.37
2018-09-28T19:42:11.030Z,2.00
2018-09-28T19:44:39.324Z,2.97
2018-09-28T19:47:07.642Z,1.00
2018-09-28T19:49:35.951Z,1.77
2018-09-28T19:52:04.276Z,2.00
2018-09-28T19:54:32.589Z,2.17
2018-09-28T19:57:00.887Z,2.00
2018-09-28T19:59:29.208Z,1.83
2018-09-28T20:01:57.508Z,1.67
2018-09-28T20:04:25.840Z,1.77
2018-09-28T20:06:54.145Z,1.83
2018-09-28T20:09:22.486Z,1.50
2018-09-28T20:11:50.787Z,3.17
2018-09-28T20:14:19.130Z,1.87
2018-09-28T20:16:47.430Z,2.00
2018-09-28T20:19:15.754Z,1.33
2018-09-28T20:21:44.058Z,2.30
2018-09-28T20:24:12.389Z,2.93
2018-09-28T20:26:40.685Z,2.90
2018-09-28T20:29:09.026Z,2.30
2018-09-28T20:31:37.332Z,1.60
2018-09-28T20:34:05.661Z,2.53
2018-09-28T20:36:33.951Z,1.57
2018-09-28T20:39:02.270Z,2.53
2018-09-28T20:41:30.588Z,1.63
2018-09-28T20:43:58.906Z,2.60
2018-09-28T20:46:27.199Z,2.83
2018-09-28T20:48:55.574Z,1.53
2018-09-28T20:51:23.850Z,0.90
2018-09-28T20:53:52.176Z,2.27
2018-09-28T20:56:20.489Z,1.90
2018-09-28T20:58:48.812Z,1.37
2018-09-28T21:01:17.111Z,1.73
2018-09-28T21:03:45.447Z,1.40
2018-09-28T21:06:13.753Z,1.50
2018-09-28T21:08:42.114Z,1.23
2018-09-28T21:11:10.437Z,1.73
2018-09-28T21:13:38.841Z,1.40
2018-09-28T21:16:07.126Z,1.53
2018-09-28T21:18:35.446Z,2.83
2018-09-28T21:21:03.743Z,1.97
2018-09-28T21:23:32.072Z,2.03
2018-09-28T21:26:00.382Z,1.50
2018-09-28T21:28:28.691Z,1.07
2018-09-28T21:30:56.992Z,1.43
2018-09-28T21:33:25.307Z,2.43
2018-09-28T21:35:53.612Z,1.87
2018-09-28T21:38:21.927Z,3.40
2018-09-28T21:40:50.251Z,2.03
2018-09-28T21:43:18.647Z,3.10
2018-09-28T21:45:46.943Z,1.97
2018-09-28T21:48:15.268Z,1.03
2018-09-28T21:50:43.630Z,1.90
2018-09-28T21:53:11.951Z,1.83
2018-09-28T21:55:40.260Z,1.27
2018-09-28T21:58:08.589Z,1.97
2018-09-28T22:00:38.632Z,2.37
2018-09-28T22:03:08.048Z,1.47
2018-09-28T22:05:36.359Z,1.67
2018-09-28T22:08:04.643Z,1.60
2018-09-28T22:10:33.483Z,1.47
2018-09-28T22:13:01.803Z,2.40
2018-09-28T22:15:30.131Z,0.83
2018-09-28T22:17:58.495Z,1.90
2018-09-28T22:20:26.820Z,1.07
2018-09-28T22:22:55.124Z,3.37
2018-09-28T22:25:23.446Z,2.00
2018-09-28T22:27:51.753Z,1.27
2018-09-28T22:30:20.081Z,2.43
2018-09-28T22:32:48.388Z,2.20
2018-09-28T22:35:16.717Z,3.07
2018-09-28T22:37:45.029Z,1.50
2018-09-28T22:40:13.348Z,1.10
2018-09-28T22:42:48.166Z,1.67
2018-09-28T22:45:16.506Z,1.47
2018-09-28T22:47:44.808Z,1.83
2018-09-28T22:50:13.128Z,2.97
2018-09-28T22:52:41.455Z,1.80
2018-09-28T22:55:09.763Z,1.10
2018-09-28T22:57:38.070Z,1.17
2018-09-28T23:00:06.403Z,3.43
2018-09-28T23:02:34.811Z,0.93
2018-09-28T23:05:03.148Z,2.83
2018-09-28T23:07:31.449Z,1.83
2018-09-28T23:09:59.816Z,1.73
2018-09-28T23:12:28.119Z,1.70
2018-09-28T23:14:56.568Z,2.00
2018-09-28T23:17:24.872Z,0.93
2018-09-28T23:19:53.204Z,0.93
2018-09-28T23:22:21.499Z,1.37
2018-09-28T23:24:49.822Z,0.80
2018-09-28T23:27:18.114Z,2.47
2018-09-28T23:29:46.431Z,0.90
2018-09-28T23:32:14.727Z,2.93
2018-09-28T23:34:43.039Z,1.43
2018-09-28T23:37:11.331Z,1.43
2018-09-28T23:39:39.642Z,1.00
2018-09-28T23:42:07.970Z,0.67
2018-09-28T23:44:36.305Z,1.10
2018-09-28T23:47:04.600Z,2.17
2018-09-28T23:49:32.928Z,3.03
2018-09-28T23:52:01.219Z,2.00
2018-09-28T23:54:29.544Z,2.10
2018-09-28T23:56:57.833Z,1.40
2018-09-28T23:59:26.162Z,0.93
